createdAt,value
2022-08-19T00:02:14.131Z,68.10
2022-08-19T00:04:41.570Z,68.20
2022-08-19T00:07:09.043Z,68.30
2022-08-19T00:09:36.374Z,68.60
2022-08-19T00:12:04.401Z,68.70
2022-08-19T00:14:35.628Z,68.70
2022-08-19T00:17:03.931Z,68.90
2022-08-19T00:19:32.275Z,68.90
2022-08-19T00:21:59.580Z,69.00
2022-08-19T00:24:29.714Z,68.90
2022-08-19T00:27:00.606Z,68.90
2022-08-19T00:29:47.026Z,68.90
2022-08-19T00:32:20.129Z,69.10
2022-08-19T00:34:47.457Z,69.20
2022-08-19T00:37:14.532Z,69.00
2022-08-19T00:39:41.715Z,69.20
2022-08-19T00:42:09.093Z,69.20
2022-08-19T00:44:37.191Z,69.30
2022-08-19T00:47:04.974Z,69.40
2022-08-19T00:49:53.327Z,69.40
2022-08-19T00:52:29.910Z,69.80
2022-08-19T00:54:59.024Z,69.60
2022-08-19T00:57:33.953Z,69.30
2022-08-19T01:00:03.523Z,69.50
2022-08-19T01:02:32.339Z,69.10
2022-08-19T01:05:02.434Z,69.80
2022-08-19T01:07:35.946Z,69.00
2022-08-19T01:10:12.426Z,68.80
2022-08-19T01:12:40.548Z,68.90
2022-08-19T01:15:11.864Z,68.90
2022-08-19T01:17:41.773Z,69.20
2022-08-19T01:20:17.353Z,69.00
2022-08-19T01:22:58.674Z,69.20
2022-08-19T01:25:32.522Z,69.30
2022-08-19T01:28:09.890Z,69.00
2022-08-19T01:30:38.756Z,68.90
2022-08-19T01:33:06.573Z,69.80
2022-08-19T01:35:34.026Z,69.00
2022-08-19T01:38:09.488Z,69.30
2022-08-19T01:40:40.017Z,69.30
2022-08-19T01:43:07.469Z,69.40
2022-08-19T01:45:36.435Z,69.20
2022-08-19T01:48:05.264Z,69.60
2022-08-19T01:50:35.350Z,69.60
2022-08-19T01:53:07.896Z,69.40
2022-08-19T01:55:41.020Z,69.60
2022-08-19T01:58:15.046Z,69.60
2022-08-19T02:00:42.913Z,69.50
2022-08-19T02:03:12.059Z,69.30
2022-08-19T02:05:42.557Z,69.40
2022-08-19T02:08:10.597Z,69.60
2022-08-19T02:10:43.449Z,69.50
2022-08-19T02:13:13.446Z,69.80
2022-08-19T02:15:40.928Z,69.60
2022-08-19T02:18:09.309Z,69.60
2022-08-19T02:20:37.908Z,69.70
2022-08-19T02:23:05.465Z,69.70
2022-08-19T02:25:41.173Z,69.80
2022-08-19T02:28:08.752Z,70.00
2022-08-19T02:30:36.087Z,69.90
2022-08-19T02:33:03.397Z,69.90
2022-08-19T02:35:30.377Z,69.80
2022-08-19T02:38:16.514Z,69.60
2022-08-19T02:40:53.178Z,69.60
2022-08-19T02:43:24.109Z,69.90
2022-08-19T02:45:52.246Z,69.80
2022-08-19T02:48:25.992Z,69.80
2022-08-19T02:50:56.358Z,70.10
2022-08-19T02:53:28.212Z,69.80
2022-08-19T02:55:55.682Z,70.00
2022-08-19T02:58:25.007Z,69.80
2022-08-19T03:00:56.685Z,69.90
2022-08-19T03:03:24.577Z,70.10
2022-08-19T03:05:57.091Z,70.00
2022-08-19T03:08:26.815Z,70.00
2022-08-19T03:10:54.779Z,70.00
2022-08-19T03:13:22.401Z,70.10
2022-08-19T03:15:49.860Z,70.00
2022-08-19T03:18:18.359Z,70.00
2022-08-19T03:20:49.022Z,70.20
2022-08-19T03:23:18.459Z,70.20
2022-08-19T03:25:59.210Z,70.10
2022-08-19T03:28:34.867Z,70.20
2022-08-19T03:31:41.548Z,70.20
2022-08-19T03:34:00.823Z,70.60
2022-08-19T03:36:29.494Z,70.20
2022-08-19T03:39:00.994Z,70.20
2022-08-19T03:41:44.949Z,71.20
2022-08-19T03:44:23.164Z,70.60
2022-08-19T03:46:54.855Z,71.70
2022-08-19T03:49:27.174Z,70.50
2022-08-19T03:51:57.983Z,70.30
2022-08-19T03:54:27.102Z,70.50
2022-08-19T03:56:55.971Z,70.60
2022-08-19T03:59:32.192Z,70.60
2022-08-19T04:02:09.912Z,71.10
2022-08-19T04:04:39.452Z,71.70
2022-08-19T04:07:07.249Z,71.00
2022-08-19T04:09:35.758Z,70.90
2022-08-19T04:12:03.673Z,70.90
2022-08-19T04:14:31.519Z,71.00
2022-08-19T04:17:01.106Z,71.10
2022-08-19T04:19:30.627Z,71.30
2022-08-19T04:21:57.572Z,71.40
2022-08-19T04:24:25.701Z,71.40
2022-08-19T04:26:52.823Z,71.90
2022-08-19T04:29:26.210Z,72.10
2022-08-19T04:31:56.647Z,72.30
2022-08-19T04:34:26.924Z,72.10
2022-08-19T04:36:56.351Z,72.10
2022-08-19T04:39:49.696Z,72.20
2022-08-19T04:42:38.153Z,72.00
2022-08-19T04:45:14.013Z,72.00
2022-08-19T04:47:49.287Z,71.70
2022-08-19T04:50:27.449Z,73.00
2022-08-19T04:52:56.406Z,72.10
2022-08-19T04:55:26.374Z,72.10
2022-08-19T04:57:55.040Z,72.10
2022-08-19T05:00:22.234Z,72.10
2022-08-19T05:02:50.223Z,72.20
2022-08-19T05:05:18.181Z,72.10
2022-08-19T05:07:45.705Z,73.20
2022-08-19T05:10:13.829Z,72.30
2022-08-19T05:12:41.126Z,72.60
2022-08-19T05:15:09.557Z,72.60
2022-08-19T05:17:39.027Z,72.40
2022-08-19T05:20:27.751Z,72.20
2022-08-19T05:22:55.080Z,72.40
2022-08-19T05:25:23.370Z,71.90
2022-08-19T05:27:50.691Z,71.90
2022-08-19T05:30:18.615Z,71.90
2022-08-19T05:32:51.304Z,71.90
2022-08-19T05:35:21.625Z,72.10
2022-08-19T05:37:49.343Z,72.20
2022-08-19T05:40:22.102Z,72.20
2022-08-19T05:42:55.046Z,72.30
2022-08-19T05:45:22.910Z,72.30
2022-08-19T05:47:50.432Z,72.30
2022-08-19T05:50:18.469Z,72.20
2022-08-19T05:52:50.061Z,72.00
2022-08-19T05:55:17.398Z,72.60
2022-08-19T05:57:44.346Z,71.50
2022-08-19T06:00:12.627Z,71.40
2022-08-19T06:02:42.162Z,71.30
2022-08-19T06:05:10.409Z,71.40
2022-08-19T06:07:40.134Z,71.50
2022-08-19T06:10:11.627Z,71.70
2022-08-19T06:12:39.153Z,71.90
2022-08-19T06:15:11.912Z,71.80
2022-08-19T06:17:39.488Z,72.00
2022-08-19T06:20:12.829Z,72.10
2022-08-19T06:22:42.529Z,72.20
2022-08-19T06:25:11.227Z,72.30
2022-08-19T06:27:48.318Z,72.40
2022-08-19T06:30:26.170Z,72.50
2022-08-19T06:32:53.949Z,72.60
2022-08-19T06:35:21.120Z,72.70
2022-08-19T06:37:48.163Z,72.90
2022-08-19T06:40:15.530Z,73.00
2022-08-19T06:42:52.988Z,73.10
2022-08-19T06:45:25.009Z,73.40
2022-08-19T06:48:01.563Z,73.50
2022-08-19T06:50:28.737Z,73.70
2022-08-19T06:52:56.131Z,73.90
2022-08-19T06:55:23.433Z,74.30
2022-08-19T06:57:54.416Z,74.30
2022-08-19T07:00:21.994Z,74.50
2022-08-19T07:02:55.670Z,74.20
2022-08-19T07:05:24.380Z,74.00
2022-08-19T07:07:51.389Z,74.20
2022-08-19T07:10:19.523Z,74.90
2022-08-19T07:12:47.593Z,73.80
2022-08-19T07:15:15.101Z,74.00
2022-08-19T07:17:44.170Z,73.70
2022-08-19T07:20:12.428Z,73.70
2022-08-19T07:22:40.397Z,73.50
2022-08-19T07:25:10.462Z,72.90
2022-08-19T07:27:39.821Z,73.00
2022-08-19T07:30:12.224Z,72.90
2022-08-19T07:32:40.819Z,73.90
2022-08-19T07:35:09.936Z,73.00
2022-08-19T07:37:38.253Z,73.30
2022-08-19T07:40:08.652Z,72.70
2022-08-19T07:42:36.075Z,72.60
2022-08-19T07:45:04.852Z,72.50
2022-08-19T07:47:49.678Z,72.50
2022-08-19T07:50:22.043Z,72.60
2022-08-19T07:52:51.062Z,72.40
2022-08-19T07:55:42.144Z,72.50
2022-08-19T07:58:14.929Z,72.30
2022-08-19T08:00:44.896Z,72.60
2022-08-19T08:03:14.048Z,72.60
2022-08-19T08:06:00.241Z,72.70
2022-08-19T08:08:36.630Z,72.40
2022-08-19T08:11:07.736Z,72.10
2022-08-19T08:13:36.225Z,72.20
2022-08-19T08:16:04.537Z,72.20
2022-08-19T08:18:32.224Z,72.10
2022-08-19T08:20:59.960Z,72.30
2022-08-19T08:23:27.550Z,72.20
2022-08-19T08:25:58.112Z,71.80
2022-08-19T08:28:29.556Z,71.80
2022-08-19T08:30:58.718Z,71.60
2022-08-19T08:33:30.154Z,71.60
2022-08-19T08:36:12.421Z,71.40
2022-08-19T08:38:41.696Z,71.20
2022-08-19T08:41:44.928Z,70.90
2022-08-19T08:44:23.630Z,70.70
2022-08-19T08:47:04.917Z,70.30
2022-08-19T08:50:08.153Z,70.70
2022-08-19T08:52:43.686Z,70.20
2022-08-19T08:55:20.614Z,69.60
2022-08-19T08:57:52.129Z,69.50
2022-08-19T09:00:25.130Z,69.60
2022-08-19T09:02:52.391Z,69.00
2022-08-19T09:05:25.909Z,69.00
2022-08-19T09:08:30.039Z,68.60
2022-08-19T09:10:58.639Z,68.30
2022-08-19T09:14:29.204Z,67.60
2022-08-19T09:16:59.441Z,67.60
2022-08-19T09:19:28.085Z,67.20
2022-08-19T09:21:56.648Z,66.90
2022-08-19T09:24:24.359Z,66.30
2022-08-19T09:26:58.423Z,66.20
2022-08-19T09:29:26.764Z,66.10
2022-08-19T09:31:54.650Z,66.10
2022-08-19T09:34:22.358Z,66.10
2022-08-19T09:36:55.828Z,65.90
2022-08-19T09:39:23.488Z,65.70
2022-08-19T09:41:51.135Z,65.50
2022-08-19T09:44:21.209Z,65.20
2022-08-19T09:46:49.197Z,64.80
2022-08-19T09:49:22.683Z,64.70
2022-08-19T09:51:54.906Z,63.80
2022-08-19T09:54:23.726Z,64.10
2022-08-19T09:56:53.802Z,64.10
2022-08-19T09:59:21.464Z,62.80
2022-08-19T10:01:49.062Z,63.10
2022-08-19T10:04:20.522Z,63.10
2022-08-19T10:06:53.737Z,62.80
2022-08-19T10:09:33.825Z,62.90
2022-08-19T10:12:04.494Z,63.10
2022-08-19T10:14:33.977Z,62.80
2022-08-19T10:17:17.478Z,62.70
2022-08-19T10:19:55.280Z,62.50
2022-08-19T10:22:25.752Z,62.00
2022-08-19T10:24:54.000Z,61.70
2022-08-19T10:27:21.566Z,61.30
2022-08-19T10:29:49.387Z,61.10
2022-08-19T10:32:16.653Z,61.10
2022-08-19T10:34:48.213Z,61.10
2022-08-19T10:37:23.932Z,60.90
2022-08-19T10:39:56.504Z,60.50
2022-08-19T10:42:23.527Z,60.60
2022-08-19T10:44:51.850Z,60.30
2022-08-19T10:47:25.701Z,60.20
2022-08-19T10:50:15.533Z,59.80
2022-08-19T10:52:49.445Z,59.80
2022-08-19T10:55:42.773Z,59.60
2022-08-19T10:58:23.142Z,58.90
2022-08-19T11:00:59.445Z,57.80
2022-08-19T11:03:31.580Z,57.90
2022-08-19T11:06:08.022Z,58.00
2022-08-19T11:08:38.773Z,57.30
2022-08-19T11:11:07.953Z,58.40
2022-08-19T11:13:39.292Z,58.10
2022-08-19T11:16:12.302Z,58.20
2022-08-19T11:18:45.098Z,57.70
2022-08-19T11:21:20.353Z,57.60
2022-08-19T11:23:50.844Z,57.30
2022-08-19T11:26:19.349Z,57.20
2022-08-19T11:28:46.740Z,57.00
2022-08-19T11:31:18.132Z,56.80
2022-08-19T11:33:47.751Z,56.80
2022-08-19T11:36:16.295Z,56.50
2022-08-19T11:38:44.154Z,56.50
2022-08-19T11:41:12.594Z,56.40
2022-08-19T11:43:41.022Z,56.30
2022-08-19T11:46:12.711Z,55.90
2022-08-19T11:48:41.101Z,55.20
2022-08-19T11:51:15.468Z,55.30
2022-08-19T11:53:42.948Z,55.00
2022-08-19T11:56:10.950Z,54.70
2022-08-19T11:58:38.127Z,54.80
2022-08-19T12:01:10.457Z,54.20
2022-08-19T12:03:39.031Z,53.20
2022-08-19T12:06:14.163Z,53.70
2022-08-19T12:08:43.333Z,53.60
2022-08-19T12:11:12.424Z,53.50
2022-08-19T12:13:39.902Z,53.20
2022-08-19T12:16:31.888Z,53.00
2022-08-19T12:19:04.634Z,52.70
2022-08-19T12:21:35.476Z,52.00
2022-08-19T12:24:05.345Z,51.20
2022-08-19T12:26:36.109Z,50.90
2022-08-19T12:29:23.353Z,50.90
2022-08-19T12:31:52.162Z,50.90
2022-08-19T12:34:20.979Z,50.80
2022-08-19T12:36:50.421Z,50.80
2022-08-19T12:39:18.060Z,50.80
2022-08-19T12:41:51.683Z,50.90
2022-08-19T12:44:28.853Z,50.80
2022-08-19T12:46:57.846Z,50.90
2022-08-19T12:49:52.618Z,50.50
2022-08-19T12:52:16.439Z,50.80
2022-08-19T12:54:45.361Z,50.80
2022-08-19T12:57:12.476Z,50.40
2022-08-19T12:59:40.148Z,49.90
2022-08-19T13:02:09.179Z,50.00
2022-08-19T13:04:38.913Z,49.50
2022-08-19T13:07:05.930Z,49.50
2022-08-19T13:09:33.065Z,50.50
2022-08-19T13:12:03.620Z,50.20
2022-08-19T13:14:32.564Z,50.00
2022-08-19T13:17:01.113Z,49.50
2022-08-19T13:19:29.656Z,49.70
2022-08-19T13:22:00.412Z,49.40
2022-08-19T13:24:31.388Z,48.80
2022-08-19T13:27:03.156Z,47.50
2022-08-19T13:29:48.541Z,46.40
2022-08-19T13:32:33.981Z,45.50
2022-08-19T13:35:04.913Z,44.10
2022-08-19T13:37:44.159Z,42.80
2022-08-19T13:40:22.712Z,42.00
2022-08-19T13:42:52.665Z,40.80
2022-08-19T13:45:25.254Z,40.90
2022-08-19T13:47:59.440Z,40.70
2022-08-19T13:50:32.245Z,40.70
2022-08-19T13:53:01.041Z,40.10
2022-08-19T13:55:28.816Z,40.00
2022-08-19T13:57:59.473Z,40.00
2022-08-19T14:00:32.230Z,39.90
2022-08-19T14:02:59.275Z,39.70
2022-08-19T14:05:29.152Z,39.90
2022-08-19T14:07:57.629Z,40.00
2022-08-19T14:10:26.338Z,40.10
2022-08-19T14:12:59.293Z,40.50
2022-08-19T14:15:28.389Z,41.30
2022-08-19T14:17:56.361Z,42.00
2022-08-19T14:20:25.907Z,42.90
2022-08-19T14:22:54.548Z,43.30
2022-08-19T14:25:27.310Z,43.70
2022-08-19T14:27:54.817Z,44.30
2022-08-19T14:30:28.661Z,44.80
2022-08-19T14:32:57.274Z,45.40
2022-08-19T14:35:24.604Z,45.80
2022-08-19T14:37:56.203Z,46.00
2022-08-19T14:40:27.628Z,46.50
2022-08-19T14:43:04.897Z,46.90
2022-08-19T14:45:37.683Z,47.40
2022-08-19T14:48:12.588Z,47.80
2022-08-19T14:50:47.877Z,48.40
2022-08-19T14:53:17.204Z,49.00
2022-08-19T14:55:45.725Z,48.30
2022-08-19T14:58:29.712Z,47.80
2022-08-19T15:01:00.431Z,47.60
2022-08-19T15:03:29.004Z,46.90
2022-08-19T15:05:58.730Z,46.30
2022-08-19T15:08:28.342Z,45.50
2022-08-19T15:10:56.469Z,44.90
2022-08-19T15:13:25.650Z,43.90
2022-08-19T15:15:52.789Z,43.00
2022-08-19T15:18:21.466Z,42.40
2022-08-19T15:20:49.905Z,41.70
2022-08-19T15:23:20.893Z,40.50
2022-08-19T15:25:48.416Z,39.30
2022-08-19T15:28:17.267Z,39.10
2022-08-19T15:30:44.730Z,38.60
2022-08-19T15:33:16.824Z,38.60
2022-08-19T15:35:44.744Z,39.50
2022-08-19T15:38:13.866Z,37.90
2022-08-19T15:40:42.776Z,37.70
2022-08-19T15:43:09.804Z,36.80
2022-08-19T15:45:37.624Z,36.50
2022-08-19T15:48:06.047Z,36.20
2022-08-19T15:50:34.138Z,35.90
2022-08-19T15:53:07.100Z,35.70
2022-08-19T15:55:41.808Z,34.90
2022-08-19T15:58:32.554Z,34.70
2022-08-19T16:01:27.006Z,34.40
2022-08-19T16:04:16.098Z,34.20
2022-08-19T16:06:51.096Z,34.00
2022-08-19T16:09:26.452Z,33.90
2022-08-19T16:12:02.852Z,33.80
2022-08-19T16:14:33.575Z,33.70
2022-08-19T16:17:01.955Z,33.50
2022-08-19T16:19:29.132Z,33.70
2022-08-19T16:21:57.681Z,33.60
2022-08-19T16:24:28.139Z,33.60
2022-08-19T16:26:56.136Z,33.30
2022-08-19T16:29:33.923Z,33.70
2022-08-19T16:32:10.213Z,33.80
2022-08-19T16:34:40.253Z,33.90
2022-08-19T16:37:08.292Z,33.80
2022-08-19T16:39:35.290Z,33.80
2022-08-19T16:42:05.305Z,33.90
2022-08-19T16:44:36.657Z,33.70
2022-08-19T16:47:04.034Z,33.70
2022-08-19T16:49:53.389Z,33.90
2022-08-19T16:52:19.793Z,34.40
2022-08-19T16:54:47.963Z,34.90
2022-08-19T16:57:15.971Z,35.60
2022-08-19T16:59:48.915Z,36.30
2022-08-19T17:02:22.569Z,37.00
2022-08-19T17:04:57.604Z,37.80
2022-08-19T17:07:33.632Z,38.40
2022-08-19T17:10:03.905Z,39.00
2022-08-19T17:12:31.962Z,39.70
2022-08-19T17:15:02.849Z,40.20
2022-08-19T17:17:31.723Z,40.80
2022-08-19T17:20:01.020Z,41.40
2022-08-19T17:22:29.235Z,42.00
2022-08-19T17:24:58.323Z,42.60
2022-08-19T17:27:32.452Z,43.10
2022-08-19T17:30:06.978Z,43.50
2022-08-19T17:32:36.001Z,44.10
2022-08-19T17:35:05.198Z,44.40
2022-08-19T17:37:33.107Z,45.10
2022-08-19T17:40:02.190Z,46.40
2022-08-19T17:42:29.669Z,48.50
2022-08-19T17:44:59.401Z,47.30
2022-08-19T17:47:28.627Z,47.10
2022-08-19T17:49:56.887Z,48.20
2022-08-19T17:52:24.978Z,49.00
2022-08-19T17:54:52.663Z,49.40
2022-08-19T17:57:19.752Z,49.90
2022-08-19T17:59:47.961Z,49.80
2022-08-19T18:02:15.748Z,50.20
2022-08-19T18:04:49.398Z,51.90
2022-08-19T18:07:21.721Z,51.20
2022-08-19T18:09:52.685Z,50.90
2022-08-19T18:12:26.621Z,51.70
2022-08-19T18:14:53.785Z,52.40
2022-08-19T18:17:23.124Z,52.40
2022-08-19T18:19:50.919Z,53.00
2022-08-19T18:22:36.446Z,53.80
2022-08-19T18:25:18.520Z,53.40
2022-08-19T18:27:51.795Z,54.00
2022-08-19T18:30:22.443Z,54.40
2022-08-19T18:32:52.797Z,54.30
2022-08-19T18:35:26.235Z,54.60
2022-08-19T18:37:53.582Z,54.70
2022-08-19T18:40:41.678Z,54.70
2022-08-19T18:43:28.979Z,55.40
2022-08-19T18:46:14.375Z,55.50
2022-08-19T18:48:59.783Z,55.80
2022-08-19T18:51:30.436Z,56.70
2022-08-19T18:53:58.879Z,56.80
2022-08-19T18:56:28.690Z,57.20
2022-08-19T18:58:59.018Z,57.50
2022-08-19T19:01:34.714Z,57.50
2022-08-19T19:04:06.794Z,58.10
2022-08-19T19:06:40.361Z,58.10
2022-08-19T19:09:12.497Z,58.30
2022-08-19T19:11:46.313Z,58.20
2022-08-19T19:14:39.040Z,58.50
2022-08-19T19:17:12.621Z,58.60
2022-08-19T19:19:43.025Z,58.50
2022-08-19T19:22:18.876Z,59.00
2022-08-19T19:24:46.804Z,59.50
2022-08-19T19:27:16.358Z,58.70
2022-08-19T19:29:43.509Z,59.00
2022-08-19T19:32:23.252Z,58.90
2022-08-19T19:34:50.819Z,59.80
2022-08-19T19:37:18.784Z,59.00
2022-08-19T19:39:48.128Z,59.30
2022-08-19T19:42:22.742Z,59.50
2022-08-19T19:44:56.264Z,60.30
2022-08-19T19:47:24.383Z,60.20
2022-08-19T19:50:13.377Z,59.80
2022-08-19T19:52:40.989Z,59.90
2022-08-19T19:55:09.651Z,59.90
2022-08-19T19:57:39.305Z,60.00
2022-08-19T20:00:09.491Z,60.10
2022-08-19T20:02:36.837Z,60.40
2022-08-19T20:05:05.485Z,60.70
2022-08-19T20:07:51.592Z,60.60
2022-08-19T20:10:18.936Z,60.70
2022-08-19T20:12:47.021Z,60.90
2022-08-19T20:15:14.854Z,61.10
2022-08-19T20:17:42.738Z,61.10
2022-08-19T20:20:15.188Z,61.30
2022-08-19T20:22:44.217Z,61.70
2022-08-19T20:25:14.886Z,61.50
2022-08-19T20:27:43.932Z,61.70
2022-08-19T20:30:20.229Z,61.80
2022-08-19T20:32:49.321Z,62.80
2022-08-19T20:35:20.502Z,61.90
2022-08-19T20:37:48.431Z,62.00
2022-08-19T20:40:16.777Z,61.80
2022-08-19T20:42:50.638Z,61.80
2022-08-19T20:45:32.647Z,61.60
2022-08-19T20:48:03.347Z,61.80
2022-08-19T20:50:32.652Z,61.60
2022-08-19T20:53:00.843Z,61.60
2022-08-19T20:55:30.527Z,61.70
2022-08-19T20:57:58.664Z,62.60
2022-08-19T21:00:26.352Z,61.60
2022-08-19T21:02:53.905Z,61.60
2022-08-19T21:05:20.931Z,61.80
2022-08-19T21:07:48.504Z,61.90
2022-08-19T21:10:16.721Z,62.00
2022-08-19T21:12:44.721Z,62.20
2022-08-19T21:15:19.448Z,62.20
2022-08-19T21:17:48.398Z,62.60
2022-08-19T21:20:15.881Z,62.20
2022-08-19T21:22:43.126Z,62.20
2022-08-19T21:25:10.953Z,62.20
2022-08-19T21:27:42.079Z,62.40
2022-08-19T21:30:11.176Z,62.70
2022-08-19T21:32:39.293Z,62.50
2022-08-19T21:35:10.090Z,62.60
2022-08-19T21:37:41.735Z,62.80
2022-08-19T21:40:12.555Z,63.90
2022-08-19T21:42:39.752Z,63.10
2022-08-19T21:45:08.328Z,63.10
2022-08-19T21:47:39.072Z,62.90
2022-08-19T21:50:13.293Z,62.90
2022-08-19T21:52:49.089Z,63.10
2022-08-19T21:55:20.332Z,63.10
2022-08-19T21:57:47.674Z,63.40
2022-08-19T22:00:20.581Z,63.00
2022-08-19T22:02:47.699Z,63.20
2022-08-19T22:05:15.122Z,63.20
2022-08-19T22:07:45.209Z,63.20
2022-08-19T22:10:12.313Z,63.70
2022-08-19T22:12:51.281Z,63.40
2022-08-19T22:15:23.840Z,63.50
2022-08-19T22:17:51.217Z,63.70
2022-08-19T22:20:24.030Z,64.00
2022-08-19T22:22:57.100Z,64.20
2022-08-19T22:25:34.798Z,64.30
2022-08-19T22:28:04.904Z,64.30
2022-08-19T22:30:34.094Z,64.10
2022-08-19T22:33:05.786Z,64.20
2022-08-19T22:35:37.520Z,64.20
2022-08-19T22:38:07.509Z,64.20
2022-08-19T22:40:39.661Z,64.30
2022-08-19T22:43:24.474Z,64.40
2022-08-19T22:45:54.102Z,65.00
2022-08-19T22:48:25.973Z,64.50
2022-08-19T22:51:13.006Z,64.50
2022-08-19T22:53:43.785Z,65.00
2022-08-19T22:56:15.521Z,64.80
2022-08-19T22:58:43.770Z,64.70
2022-08-19T23:01:13.012Z,64.70
2022-08-19T23:03:52.640Z,65.10
2022-08-19T23:06:19.736Z,66.00
2022-08-19T23:08:47.492Z,65.10
2022-08-19T23:11:15.054Z,65.10
2022-08-19T23:13:42.809Z,65.00
2022-08-19T23:16:10.155Z,65.10
2022-08-19T23:18:37.185Z,65.10
2022-08-19T23:21:09.364Z,65.00
2022-08-19T23:23:39.365Z,65.00
2022-08-19T23:26:10.413Z,65.00
2022-08-19T23:28:57.784Z,65.00
2022-08-19T23:31:27.045Z,65.10
2022-08-19T23:33:54.382Z,65.00
2022-08-19T23:36:22.678Z,65.10
2022-08-19T23:38:52.201Z,65.00
2022-08-19T23:41:21.820Z,65.10
2022-08-19T23:43:50.835Z,65.10
2022-08-19T23:46:27.554Z,65.10
2022-08-19T23:48:58.061Z,65.10
2022-08-19T23:51:26.462Z,65.10
2022-08-19T23:53:54.161Z,65.10
2022-08-19T23:56:21.553Z,65.10
2022-08-19T23:58:49.076Z,65.00
